Time;durP1;ratioP1;P1;durP2;ratioP2;P2;SDS_P1;SDS_P2;PMS_P1;PMS_P2;Temp;Humidity;BMP_temperature;BMP_pressure;BME280_temperature;BME280_humidity;BME280_pressure;Samples;Min_cycle;Max_cycle;Signal;HPM_P1;HPM_P2
2023/07/20 00:00:42;;;;;;;4.20;2.60;;;;;;;15.87;77.86;99954.02;105467;1258;83141;-63
2023/07/20 00:03:28;;;;;;;4.00;2.30;;;;;;;15.81;78.57;99952.45;105400;1253;74788;-63
2023/07/20 00:05:56;;;;;;;4.10;2.50;;;;;;;15.79;79.18;99951.15;105438;1253;69058;-63
2023/07/20 00:08:22;;;;;;;6.60;2.90;;;;;;;15.76;79.29;99942.58;105492;1257;69193;-63
2023/07/20 00:10:49;;;;;;;5.50;2.50;;;;;;;15.74;79.80;99943.02;105433;1253;74082;-63
2023/07/20 00:13:18;;;;;;;5.10;2.90;;;;;;;15.74;79.86;99950.27;105428;1253;82494;-63
2023/07/20 00:15:45;;;;;;;5.80;3.00;;;;;;;15.74;80.57;99945.52;105400;1253;73545;-63
2023/07/20 00:18:13;;;;;;;4.40;3.00;;;;;;;15.75;80.52;99947.04;105429;1254;69286;-63
2023/07/20 00:20:40;;;;;;;7.80;3.10;;;;;;;15.73;80.71;99947.67;105461;1255;69100;-63
2023/07/20 00:23:07;;;;;;;4.30;3.10;;;;;;;15.72;81.07;99941.29;105497;1258;74224;-63
2023/07/20 00:25:35;;;;;;;4.80;2.70;;;;;;;15.72;81.43;99938.06;105414;1258;83234;-63
2023/07/20 00:28:02;;;;;;;6.10;3.50;;;;;;;15.73;81.63;99942.77;105455;1259;73050;-63
2023/07/20 00:30:29;;;;;;;6.40;3.50;;;;;;;15.73;82.10;99945.08;105433;1253;69129;-63
2023/07/20 00:32:56;;;;;;;3.80;2.60;;;;;;;15.74;82.20;99946.23;105414;1258;69196;-63
2023/07/20 00:35:23;;;;;;;3.20;2.50;;;;;;;15.74;82.27;99952.39;105230;1253;73021;-63
2023/07/20 00:37:50;;;;;;;3.90;2.80;;;;;;;15.75;82.75;99956.02;105413;1256;82395;-63
2023/07/20 00:40:17;;;;;;;4.90;3.10;;;;;;;15.76;82.75;99956.80;105420;1258;72695;-63
2023/07/20 00:42:44;;;;;;;4.20;2.50;;;;;;;15.76;83.00;99954.71;105269;1256;69263;-62
2023/07/20 00:45:11;;;;;;;4.60;2.90;;;;;;;15.78;83.18;99953.34;105231;1259;69210;-62
2023/07/20 00:47:38;;;;;;;4.00;2.80;;;;;;;15.77;83.02;99958.33;105441;1253;73891;-62
2023/07/20 00:50:07;;;;;;;4.30;3.10;;;;;;;15.77;83.27;99961.36;105215;1259;83427;-63
2023/07/20 00:52:34;;;;;;;4.70;2.80;;;;;;;15.77;83.55;99962.95;105480;1258;73893;-63
2023/07/20 00:55:01;;;;;;;4.60;3.00;;;;;;;15.79;83.73;99969.84;105498;1253;69206;-63
2023/07/20 00:57:30;;;;;;;5.20;2.70;;;;;;;15.78;83.58;99972.39;105482;1258;69717;-63
2023/07/20 00:59:57;;;;;;;5.10;2.80;;;;;;;15.77;83.84;99971.92;105409;1258;74341;-63
2023/07/20 01:02:24;;;;;;;5.30;2.80;;;;;;;15.76;83.94;99976.52;105204;1260;83666;-63
2023/07/20 01:04:52;;;;;;;4.90;2.80;;;;;;;15.77;84.28;99971.20;105422;1253;73387;-62
2023/07/20 01:07:38;;;;;;;5.40;3.40;;;;;;;15.78;84.34;99969.36;105255;1261;69267;-62
2023/07/20 01:10:20;;;;;;;4.90;3.20;;;;;;;15.80;84.37;99969.42;105502;1258;69231;-63
2023/07/20 01:12:51;;;;;;;6.50;2.90;;;;;;;15.79;84.56;99965.92;105513;1258;73852;-62
2023/07/20 01:15:19;;;;;;;4.30;3.00;;;;;;;15.80;84.49;99963.09;105224;1260;83648;-63
2023/07/20 01:17:46;;;;;;;7.00;3.20;;;;;;;15.82;84.80;99961.54;105441;1253;72698;-62
2023/07/20 01:20:14;;;;;;;4.70;2.90;;;;;;;15.85;84.92;99962.58;105486;1258;69056;-63
2023/07/20 01:22:59;;;;;;;5.90;3.60;;;;;;;15.88;85.01;99963.48;105160;1253;69199;-62
2023/07/20 01:25:58;;;;;;;5.40;3.20;;;;;;;15.89;84.95;99962.48;105481;1253;73825;-63
2023/07/20 01:29:04;;;;;;;4.60;2.70;;;;;;;15.90;85.29;99964.35;105477;1258;83291;-63
2023/07/20 01:31:34;;;;;;;7.70;3.50;;;;;;;15.95;85.80;99970.37;105226;1254;73974;-62
2023/07/20 01:34:03;;;;;;;4.90;3.40;;;;;;;15.98;85.77;99970.86;105470;1254;69173;-63
2023/07/20 01:36:34;;;;;;;6.40;3.30;;;;;;;16.03;86.03;99969.49;105535;1258;69150;-63
2023/07/20 01:39:02;;;;;;;3.90;2.90;;;;;;;16.05;85.74;99970.38;105465;1253;75001;-63
2023/07/20 01:41:29;;;;;;;4.40;2.80;;;;;;;16.06;85.75;99973.69;105229;1258;82425;-63
2023/07/20 01:43:59;;;;;;;4.00;3.00;;;;;;;16.06;85.65;99979.32;105435;1254;73659;-63
2023/07/20 01:46:26;;;;;;;;;;;;;;;16.05;85.83;99980.95;105426;1255;69186;-63
2023/07/20 01:48:54;;;;;;;4.30;2.90;;;;;;;16.08;86.15;99982.20;105476;1257;69158;-62
2023/07/20 01:51:22;;;;;;;8.10;3.20;;;;;;;16.07;85.84;99985.44;105218;1256;74704;-63
2023/07/20 01:53:49;;;;;;;8.80;3.20;;;;;;;16.06;85.87;99987.61;105318;1259;83444;-63
2023/07/20 01:56:16;;;;;;;4.70;3.00;;;;;;;16.06;86.26;99990.27;105493;1258;72706;-63
2023/07/20 01:58:43;;;;;;;6.80;3.10;;;;;;;16.05;86.21;99990.15;105204;1255;69179;-62
2023/07/20 02:01:10;;;;;;;4.50;3.20;;;;;;;16.08;86.63;99995.41;105277;1260;69134;-62
2023/07/20 02:03:37;;;;;;;5.00;3.30;;;;;;;16.12;86.77;100001.00;105491;1253;74930;-62
2023/07/20 02:06:04;;;;;;;5.50;3.50;;;;;;;16.14;86.88;100002.27;105495;1258;83207;-63
2023/07/20 02:08:31;;;;;;;6.70;3.60;;;;;;;16.15;86.85;100000.57;105188;1256;72643;-62
2023/07/20 02:10:58;;;;;;;6.00;2.80;;;;;;;16.15;86.65;99995.11;105368;1260;69227;-62
2023/07/20 02:13:25;;;;;;;7.20;3.10;;;;;;;16.13;86.66;99994.05;105455;1257;69191;-63
2023/07/20 02:15:52;;;;;;;8.90;3.60;;;;;;;16.10;86.76;99988.61;105428;1259;75270;-63
2023/07/20 02:18:21;;;;;;;5.40;3.30;;;;;;;16.08;86.87;99985.19;105479;1253;82744;-63
2023/07/20 02:20:48;;;;;;;4.90;3.40;;;;;;;16.08;87.09;99983.44;105510;1253;73808;-62
2023/07/20 02:23:16;;;;;;;3.90;3.30;;;;;;;16.09;87.49;99975.81;105437;1257;70972;-62
2023/07/20 02:25:44;;;;;;;5.70;3.30;;;;;;;16.13;87.74;99975.34;105225;1258;69250;-63
2023/07/20 02:28:13;;;;;;;6.10;3.10;;;;;;;16.14;87.48;99976.73;105217;1253;73646;-63
2023/07/20 02:30:40;;;;;;;5.30;3.20;;;;;;;16.12;87.42;99971.50;105478;1257;83238;-63
2023/07/20 02:33:07;;;;;;;5.50;3.10;;;;;;;16.12;87.27;99972.10;105469;1254;73616;-62
2023/07/20 02:35:34;;;;;;;4.60;3.10;;;;;;;16.09;87.13;99968.39;105214;1255;69177;-63
2023/07/20 02:38:01;;;;;;;5.20;3.40;;;;;;;16.04;86.97;99968.87;105393;1259;69212;-63
2023/07/20 02:40:29;;;;;;;7.70;3.10;;;;;;;15.99;86.85;99974.35;105229;1256;74724;-63
2023/07/20 02:42:55;;;;;;;4.40;3.50;;;;;;;15.94;86.96;99979.07;105433;1253;83328;-62
2023/07/20 02:45:23;;;;;;;5.00;3.40;;;;;;;15.93;87.46;99983.88;105405;1253;72605;-62
2023/07/20 02:47:50;;;;;;;4.80;3.20;;;;;;;15.93;87.86;99977.39;105181;1260;69187;-63
2023/07/20 02:50:18;;;;;;;4.70;3.30;;;;;;;15.92;88.01;99972.17;105409;1259;69068;-63
2023/07/20 02:52:45;;;;;;;4.00;3.30;;;;;;;15.94;88.37;99971.17;105445;1253;74994;-62
2023/07/20 02:55:12;;;;;;;4.80;3.40;;;;;;;15.92;88.17;99967.92;105238;1261;84723;-63
2023/07/20 02:57:39;;;;;;;3.50;3.20;;;;;;;15.92;88.38;99963.00;105422;1258;73973;-63
2023/07/20 03:00:07;;;;;;;5.40;3.30;;;;;;;15.91;88.20;99964.81;105485;1253;69172;-61
2023/07/20 03:02:34;;;;;;;6.50;3.30;;;;;;;15.87;87.85;99965.97;105341;1253;69076;-61
2023/07/20 03:05:05;;;;;;;7.30;3.80;;;;;;;15.82;88.13;99961.88;105445;1253;74788;-61
2023/07/20 03:07:32;;;;;;;5.40;3.30;;;;;;;15.79;88.07;99965.05;105410;1258;82222;-61
2023/07/20 03:09:59;;;;;;;6.60;3.00;;;;;;;15.77;87.97;99968.23;105204;1261;73124;-62
2023/07/20 03:12:27;;;;;;;6.50;3.70;;;;;;;15.74;88.16;99969.98;105445;1258;69173;-61
2023/07/20 03:14:54;;;;;;;6.00;3.40;;;;;;;15.75;88.83;99979.77;105509;1258;69117;-61
2023/07/20 03:17:21;;;;;;;7.20;3.20;;;;;;;15.77;88.87;99977.39;105250;1253;74835;-61
2023/07/20 03:19:48;;;;;;;4.60;3.50;;;;;;;15.78;89.04;99975.20;105325;1260;83524;-61
2023/07/20 03:22:15;;;;;;;6.50;3.30;;;;;;;15.79;89.29;99972.14;105442;1253;73846;-61
2023/07/20 03:24:42;;;;;;;4.70;3.10;;;;;;;15.79;89.13;99978.62;105456;1253;69087;-62
2023/07/20 03:27:09;;;;;;;6.70;3.40;;;;;;;15.79;89.07;99990.08;105475;1258;69198;-62
2023/07/20 03:29:36;;;;;;;5.00;3.30;;;;;;;15.79;88.93;99994.48;105241;1258;75032;-61
2023/07/20 03:32:03;;;;;;;9.40;3.80;;;;;;;15.81;89.23;100001.44;105416;1254;82300;-61
2023/07/20 03:34:30;;;;;;;8.50;3.60;;;;;;;15.82;89.16;99999.08;105466;1253;73738;-61
2023/07/20 03:36:57;;;;;;;8.00;3.80;;;;;;;15.82;89.21;99994.30;105349;1259;69279;-61
2023/07/20 03:39:24;;;;;;;5.20;3.40;;;;;;;15.85;89.36;99999.21;105505;1256;69177;-61
2023/07/20 03:41:51;;;;;;;5.60;3.50;;;;;;;15.86;89.38;99999.32;105366;1255;74562;-61
2023/07/20 03:44:17;;;;;;;5.40;3.20;;;;;;;15.88;89.37;99997.98;105455;1253;82527;-61
2023/07/20 03:46:44;;;;;;;6.10;3.20;;;;;;;15.89;89.05;99999.68;105472;1257;73913;-61
2023/07/20 03:49:12;;;;;;;8.30;3.30;;;;;;;15.90;89.13;99998.19;105464;1253;69149;-60
2023/07/20 03:51:39;;;;;;;8.50;3.20;;;;;;;15.91;88.95;100001.48;105474;1253;69113;-61
2023/07/20 03:54:07;;;;;;;8.40;3.50;;;;;;;15.92;89.14;100003.91;105509;1259;73916;-61
2023/07/20 03:56:35;;;;;;;10.50;4.10;;;;;;;15.93;89.34;100002.21;105446;1257;83626;-61
2023/07/20 03:59:02;;;;;;;7.70;3.70;;;;;;;15.95;89.53;99995.02;105546;1255;74006;-61
2023/07/20 04:01:30;;;;;;;8.10;3.80;;;;;;;15.98;89.66;99992.70;105477;1255;69119;-61
2023/07/20 04:03:57;;;;;;;7.60;3.80;;;;;;;15.98;89.35;100002.21;105551;1256;69167;-61
2023/07/20 04:06:24;;;;;;;8.00;3.20;;;;;;;15.98;89.37;100001.92;105499;1258;74982;-61
2023/07/20 04:08:52;;;;;;;7.00;3.10;;;;;;;15.99;89.37;100011.51;105545;1258;83248;-61
2023/07/20 04:11:19;;;;;;;5.80;3.40;;;;;;;16.02;89.38;100021.52;105483;1257;73904;-61
2023/07/20 04:13:46;;;;;;;9.70;4.00;;;;;;;16.04;89.41;100028.62;105477;1257;69269;-61
2023/07/20 04:16:13;;;;;;;7.10;3.60;;;;;;;16.04;89.28;100036.02;105357;1257;69176;-61
2023/07/20 04:18:40;;;;;;;5.20;3.70;;;;;;;16.05;89.47;100036.16;105480;1258;75380;-61
2023/07/20 04:21:10;;;;;;;4.80;3.60;;;;;;;16.08;89.71;100037.04;105493;1257;83442;-61
2023/07/20 04:23:37;;;;;;;10.00;3.60;;;;;;;16.10;89.66;100038.13;105435;1258;73959;-61
2023/07/20 04:26:06;;;;;;;5.00;3.10;;;;;;;16.12;89.69;100040.84;105594;1257;69391;-61
2023/07/20 04:28:33;;;;;;;7.80;3.60;;;;;;;16.13;89.39;100040.42;105382;1258;69643;-61
2023/07/20 04:31:13;;;;;;;6.10;3.40;;;;;;;16.13;89.28;100038.44;105318;1257;74905;-62
2023/07/20 04:33:42;;;;;;;4.40;2.90;;;;;;;16.15;88.90;100040.05;105417;1251;83243;-62
2023/07/20 04:36:09;;;;;;;5.20;2.80;;;;;;;16.17;88.62;100048.23;105485;1255;73497;-61
2023/07/20 04:38:36;;;;;;;7.70;3.10;;;;;;;16.20;88.71;100052.12;105480;1255;69291;-62
2023/07/20 04:41:09;;;;;;;5.40;3.30;;;;;;;16.24;88.79;100047.20;105471;1256;69182;-61
2023/07/20 04:43:44;;;;;;;6.00;3.30;;;;;;;16.27;88.34;100043.33;105413;1262;73799;-62
2023/07/20 04:46:13;;;;;;;4.00;3.00;;;;;;;16.33;88.43;100045.42;105296;1259;82332;-61
2023/07/20 04:48:41;;;;;;;6.00;3.10;;;;;;;16.39;88.69;100045.20;105314;1257;73807;-62
2023/07/20 04:51:10;;;;;;;5.50;3.70;;;;;;;16.44;88.25;100044.67;105380;1259;69093;-62
2023/07/20 04:53:37;;;;;;;4.10;3.20;;;;;;;16.47;88.36;100047.98;105427;1259;69196;-61
2023/07/20 04:56:04;;;;;;;7.10;3.10;;;;;;;16.50;88.01;100047.29;105494;1256;74996;-62
2023/07/20 04:58:31;;;;;;;5.00;3.60;;;;;;;16.51;88.07;100047.37;105525;1257;83306;-62
2023/07/20 05:00:58;;;;;;;6.10;3.40;;;;;;;16.55;88.00;100046.80;105448;1254;73759;-62
2023/07/20 05:03:26;;;;;;;6.40;3.40;;;;;;;16.57;87.98;100053.67;105507;1257;69056;-61
2023/07/20 05:05:54;;;;;;;6.20;3.50;;;;;;;16.63;88.39;100057.33;105550;1257;69145;-62
2023/07/20 05:08:24;;;;;;;5.80;3.30;;;;;;;16.69;88.47;100062.73;105498;1258;74681;-64
2023/07/20 05:10:52;;;;;;;5.90;3.20;;;;;;;16.70;88.11;100061.27;105513;1257;82451;-63
2023/07/20 05:13:19;;;;;;;9.00;3.50;;;;;;;16.73;87.92;100062.13;105525;1257;73876;-66
2023/07/20 05:15:47;;;;;;;6.50;3.50;;;;;;;16.72;87.77;100063.23;105275;1258;69225;-68
2023/07/20 05:18:19;;;;;;;8.90;3.40;;;;;;;16.69;87.52;100063.59;105339;1260;69212;-67
2023/07/20 05:20:47;;;;;;;5.40;3.50;;;;;;;16.70;87.70;100065.98;107611;1257;74351;-66
2023/07/20 05:23:19;;;;;;;8.00;3.60;;;;;;;16.72;87.52;100060.23;105601;1257;83544;-64
2023/07/20 05:25:47;;;;;;;5.50;3.30;;;;;;;16.77;87.42;100066.67;105561;1256;72685;-64
2023/07/20 05:28:14;;;;;;;5.40;3.30;;;;;;;16.82;87.48;100068.44;105527;1257;69181;-67
2023/07/20 05:30:41;;;;;;;7.50;3.50;;;;;;;16.87;87.43;100063.63;105533;1254;69304;-65
2023/07/20 05:33:08;;;;;;;5.70;3.20;;;;;;;16.94;87.48;100065.45;105574;1254;73713;-66
2023/07/20 05:35:37;;;;;;;6.30;3.10;;;;;;;17.00;87.29;100063.67;105526;1257;83248;-64
2023/07/20 05:38:05;;;;;;;4.50;3.00;;;;;;;17.03;87.21;100065.39;105632;1256;72502;-65
2023/07/20 05:40:32;;;;;;;5.50;3.00;;;;;;;17.06;87.18;100070.98;105559;1254;69154;-65
2023/07/20 05:43:00;;;;;;;8.20;2.70;;;;;;;17.13;86.75;100071.94;105562;1256;69101;-64
2023/07/20 05:45:27;;;;;;;4.90;2.80;;;;;;;17.17;86.56;100068.69;105563;1257;74893;-65
2023/07/20 05:47:54;;;;;;;3.80;2.80;;;;;;;17.22;86.75;100068.83;105508;1258;82345;-65
2023/07/20 05:50:21;;;;;;;4.50;2.90;;;;;;;17.26;86.34;100070.52;105740;1257;73542;-65
2023/07/20 05:52:48;;;;;;;7.90;2.80;;;;;;;17.25;86.02;100071.47;105526;1259;69228;-64
2023/07/20 05:55:15;;;;;;;4.70;2.70;;;;;;;17.22;85.61;100070.05;105601;1258;69174;-65
2023/07/20 05:57:43;;;;;;;4.00;2.70;;;;;;;17.20;85.74;100072.84;105657;1257;74833;-65
2023/07/20 06:00:12;;;;;;;6.20;3.20;;;;;;;17.22;85.73;100072.55;105687;1258;83087;-65
2023/07/20 06:02:42;;;;;;;5.80;2.90;;;;;;;17.24;85.75;100069.43;105682;1256;72673;-64
2023/07/20 06:05:09;;;;;;;4.20;2.60;;;;;;;17.30;86.18;100069.52;105677;1260;69126;-65
2023/07/20 06:07:37;;;;;;;3.80;2.70;;;;;;;17.36;85.86;100072.05;105601;1256;69189;-67
2023/07/20 06:10:05;;;;;;;3.70;2.30;;;;;;;17.41;85.48;100075.29;105648;1253;74802;-66
2023/07/20 06:12:35;;;;;;;4.70;2.50;;;;;;;17.45;85.26;100078.17;105690;1257;83288;-62
2023/07/20 06:15:03;;;;;;;2.80;2.20;;;;;;;17.51;85.23;100080.73;105674;1255;73618;-63
2023/07/20 06:17:31;;;;;;;4.90;2.50;;;;;;;17.58;85.03;100077.95;105574;1259;69026;-63
2023/07/20 06:19:58;;;;;;;4.30;2.20;;;;;;;17.64;84.77;100075.63;105521;1255;69185;-63
2023/07/20 06:22:25;;;;;;;3.60;2.60;;;;;;;17.70;84.55;100078.36;105537;1257;74977;-63
2023/07/20 06:24:52;;;;;;;4.60;2.00;;;;;;;17.75;84.26;100079.89;105585;1257;83290;-62
2023/07/20 06:27:19;;;;;;;3.80;2.30;;;;;;;17.81;84.09;100079.31;105430;1260;73673;-63
2023/07/20 06:29:46;;;;;;;2.70;1.80;;;;;;;17.90;83.95;100082.98;105457;1255;69137;-63
2023/07/20 06:32:13;;;;;;;2.50;1.60;;;;;;;17.97;83.55;100086.85;105542;1258;69191;-63
2023/07/20 06:34:41;;;;;;;3.90;1.90;;;;;;;18.06;83.22;100087.77;105471;1257;74874;-63
2023/07/20 06:37:08;;;;;;;5.60;2.20;;;;;;;18.22;83.12;100088.38;105682;1257;82473;-63
2023/07/20 06:39:35;;;;;;;2.50;1.60;;;;;;;18.43;82.93;100080.10;105399;1258;73604;-63
2023/07/20 06:42:05;;;;;;;;;;;;;;;18.61;82.29;100080.48;105155;1262;69348;-63
2023/07/20 06:44:32;;;;;;;4.20;1.70;;;;;;;18.77;81.79;100081.27;105066;1263;69174;-63
2023/07/20 06:46:59;;;;;;;1.90;1.40;;;;;;;18.92;81.18;100085.63;105258;1262;74856;-62
2023/07/20 06:49:27;;;;;;;4.20;1.80;;;;;;;19.02;80.42;100086.76;105078;1264;83214;-63
2023/07/20 06:51:55;;;;;;;4.70;1.60;;;;;;;19.10;79.86;100089.66;105140;1261;73464;-63
2023/07/20 06:54:22;;;;;;;1.50;1.20;;;;;;;19.18;79.19;100091.77;105061;1257;69175;-63
2023/07/20 06:56:51;;;;;;;4.20;1.60;;;;;;;19.22;78.48;100094.25;105166;1263;69181;-62
2023/07/20 06:59:38;;;;;;;3.30;1.60;;;;;;;19.30;77.97;100098.91;105221;1255;74831;-63
2023/07/20 07:02:08;;;;;;;;;;;;;;;19.38;77.71;100101.16;105019;1263;83713;-62
2023/07/20 07:04:42;;;;;;;2.40;1.50;;;;;;;19.45;77.29;100100.48;105050;1264;73700;-64
2023/07/20 07:07:09;;;;;;;2.80;1.40;;;;;;;19.52;77.05;100103.77;105252;1263;69135;-67
2023/07/20 07:09:36;;;;;;;4.40;2.20;;;;;;;19.57;76.81;100106.71;105238;1263;69158;-65
2023/07/20 07:12:05;;;;;;;3.90;2.00;;;;;;;19.62;76.39;100111.54;105137;1263;73826;-65
2023/07/20 07:14:32;;;;;;;4.50;2.00;;;;;;;19.61;76.09;100108.38;105209;1263;83289;-65
2023/07/20 07:16:59;;;;;;;3.60;1.90;;;;;;;19.62;75.98;100109.02;105193;1264;73922;-65
2023/07/20 07:19:31;;;;;;;2.30;2.00;;;;;;;19.64;75.65;100107.66;105219;1260;69594;-65
2023/07/20 07:21:58;;;;;;;2.90;2.10;;;;;;;19.52;75.12;100102.72;105070;1264;69239;-65
2023/07/20 07:24:33;;;;;;;3.50;1.90;;;;;;;19.45;75.19;100103.80;105080;1262;74689;-65
2023/07/20 07:27:01;;;;;;;3.00;1.90;;;;;;;19.41;75.25;100106.06;105356;1254;82916;-64
2023/07/20 07:29:28;;;;;;;4.00;2.00;;;;;;;19.34;75.13;100106.42;105497;1259;73656;-65
2023/07/20 07:31:56;;;;;;;3.60;2.00;;;;;;;19.30;74.86;100110.88;105587;1259;69138;-64
2023/07/20 07:34:23;;;;;;;2.20;1.90;;;;;;;19.24;74.46;100112.73;105728;1253;69081;-65
2023/07/20 07:36:50;;;;;;;2.50;1.70;;;;;;;19.24;74.73;100111.35;105688;1254;74812;-64
2023/07/20 07:39:17;;;;;;;2.40;1.70;;;;;;;19.29;74.79;100107.23;105501;1254;82599;-65
2023/07/20 07:41:47;;;;;;;2.10;1.90;;;;;;;19.33;74.66;100109.13;105016;1264;73733;-64
2023/07/20 07:44:14;;;;;;;3.70;2.30;;;;;;;19.44;74.58;100111.00;104911;1260;179784;-65
2023/07/20 07:46:41;;;;;;;4.30;2.00;;;;;;;19.48;74.17;100112.45;105244;1263;69166;-66
2023/07/20 07:49:08;;;;;;;2.60;1.70;;;;;;;19.49;73.87;100110.59;105246;1264;74660;-66
2023/07/20 07:51:35;;;;;;;2.50;1.50;;;;;;;19.54;73.75;100113.52;105075;1261;82384;-66
2023/07/20 07:54:02;;;;;;;3.70;1.70;;;;;;;19.60;73.33;100114.16;105062;1263;72658;-64
2023/07/20 07:56:29;;;;;;;3.40;1.90;;;;;;;19.68;73.12;100109.63;105121;1264;69269;-65
2023/07/20 07:58:56;;;;;;;2.50;1.80;;;;;;;19.85;73.49;100106.70;105014;1258;69214;-63
2023/07/20 08:01:23;;;;;;;3.20;1.70;;;;;;;20.02;72.87;100110.44;105551;1254;74671;-63
2023/07/20 08:03:50;;;;;;;3.30;1.80;;;;;;;20.05;72.15;100106.80;105526;1253;83415;-62
2023/07/20 08:06:17;;;;;;;3.20;1.60;;;;;;;20.07;71.61;100107.40;105628;1254;73736;-63
2023/07/20 08:08:45;;;;;;;4.00;2.00;;;;;;;20.09;71.29;100110.11;105502;1257;69120;-64
2023/07/20 08:11:11;;;;;;;3.00;2.20;;;;;;;20.13;71.14;100101.73;105499;1258;69206;-63
2023/07/20 08:13:42;;;;;;;5.30;1.70;;;;;;;20.19;70.88;100103.57;105473;1254;74779;-63
2023/07/20 08:16:09;;;;;;;3.10;1.70;;;;;;;20.17;70.34;100106.52;105490;1258;83477;-63
2023/07/20 08:18:36;;;;;;;5.80;1.70;;;;;;;20.17;70.09;100103.58;105470;1254;72693;-63
2023/07/20 08:21:03;;;;;;;3.80;1.80;;;;;;;20.18;69.86;100107.06;105449;1255;69061;-63
2023/07/20 08:23:30;;;;;;;3.20;1.60;;;;;;;20.28;69.76;100105.83;105496;1256;69174;-63
2023/07/20 08:25:57;;;;;;;4.40;1.60;;;;;;;20.45;69.60;100106.76;105448;1254;74814;-62
2023/07/20 08:28:26;;;;;;;3.80;1.50;;;;;;;20.62;69.03;100103.55;105457;1257;83706;-62
2023/07/20 08:30:53;;;;;;;1.90;1.30;;;;;;;20.81;68.42;100101.11;105472;1256;73734;-63
2023/07/20 08:33:20;;;;;;;2.30;1.30;;;;;;;20.98;67.82;100101.45;105495;1255;69232;-62
2023/07/20 08:35:47;;;;;;;2.10;1.10;;;;;;;21.10;67.33;100102.53;105398;1257;69118;-63
2023/07/20 08:38:15;;;;;;;1.80;1.20;;;;;;;21.15;66.78;100100.50;105507;1254;74991;-61
2023/07/20 08:40:46;;;;;;;3.90;1.20;;;;;;;21.11;66.04;100101.71;105435;1257;83672;-63
2023/07/20 08:43:16;;;;;;;2.80;1.00;;;;;;;20.95;65.44;100105.21;105483;1254;72692;-63
2023/07/20 08:45:43;;;;;;;;;;;;;;;20.79;64.58;100108.73;105521;1254;69195;-62
2023/07/20 08:48:11;;;;;;;1.80;1.20;;;;;;;20.67;64.51;100111.85;105563;1256;69161;-61
2023/07/20 08:50:39;;;;;;;2.00;1.20;;;;;;;20.66;64.97;100111.74;105495;1257;73714;-61
2023/07/20 08:53:06;;;;;;;2.30;1.00;;;;;;;20.71;65.18;100112.56;105471;1254;83223;-61
2023/07/20 08:55:34;;;;;;;1.90;1.10;;;;;;;20.73;64.76;100114.23;105453;1254;73651;-61
2023/07/20 08:58:02;;;;;;;4.00;1.10;;;;;;;20.81;64.71;100110.56;105364;1259;69196;-60
2023/07/20 09:00:29;;;;;;;2.10;0.90;;;;;;;20.93;64.25;100102.39;105462;1257;69303;-62
2023/07/20 09:02:57;;;;;;;2.10;1.10;;;;;;;21.08;63.79;100102.39;105507;1254;74868;-61
2023/07/20 09:05:24;;;;;;;2.00;0.90;;;;;;;21.23;63.53;100095.88;105378;1259;83175;-61
2023/07/20 09:07:53;;;;;;;1.00;0.70;;;;;;;21.54;63.33;100097.55;105356;1254;73769;-62
2023/07/20 09:10:22;;;;;;;1.70;0.90;;;;;;;21.82;62.50;100100.02;105516;1254;69183;-61
2023/07/20 09:12:50;;;;;;;3.30;1.40;;;;;;;22.01;61.62;100098.18;105544;1257;69254;-61
2023/07/20 09:15:19;;;;;;;3.90;1.00;;;;;;;22.07;60.77;100100.80;105442;1257;74645;-62
2023/07/20 09:17:48;;;;;;;1.50;1.00;;;;;;;21.94;59.94;100103.73;105396;1253;83826;-62
2023/07/20 09:20:19;;;;;;;1.40;0.80;;;;;;;21.83;59.44;100108.27;105466;1257;72618;-63
2023/07/20 09:22:52;;;;;;;1.20;0.60;;;;;;;21.90;59.33;100103.96;105571;1256;69116;-63
2023/07/20 09:25:20;;;;;;;1.30;0.90;;;;;;;22.10;59.21;100101.42;105523;1256;69183;-63
2023/07/20 09:27:49;;;;;;;;;;;;;;;22.28;58.62;100099.09;105520;1257;73912;-62
2023/07/20 09:30:19;;;;;;;2.20;0.90;;;;;;;22.34;57.90;100099.63;105465;1256;83360;-65
2023/07/20 09:32:48;;;;;;;1.50;0.90;;;;;;;22.43;57.71;100094.17;105504;1257;72625;-67
2023/07/20 09:35:19;;;;;;;1.90;1.10;;;;;;;22.43;57.36;100095.45;105208;1257;69163;-64
2023/07/20 09:38:00;;;;;;;1.10;0.80;;;;;;;22.32;56.78;100096.75;104788;1265;69340;-66
2023/07/20 09:40:30;;;;;;;1.90;0.90;;;;;;;22.18;56.63;100094.12;104485;1267;74858;-65
2023/07/20 09:43:00;;;;;;;;;;;;;;;22.08;56.36;100095.00;104126;1276;83456;-64
2023/07/20 09:45:33;;;;;;;1.30;1.00;;;;;;;21.95;56.22;100088.16;103738;1277;73645;-66
2023/07/20 09:48:05;;;;;;;1.70;0.80;;;;;;;22.03;56.63;100088.16;103376;1281;69497;-66
2023/07/20 09:50:43;;;;;;;1.50;0.80;;;;;;;22.26;56.48;100089.63;102987;1283;69250;-68
2023/07/20 09:53:13;;;;;;;1.50;0.90;;;;;;;22.51;56.39;100083.34;102962;1288;74910;-67
2023/07/20 09:55:44;;;;;;;1.40;0.80;;;;;;;22.80;56.00;100085.23;103340;1289;83559;-67
2023/07/20 09:58:11;;;;;;;1.30;0.80;;;;;;;22.97;55.15;100083.66;103534;1283;73768;-66
2023/07/20 10:00:39;;;;;;;1.20;0.70;;;;;;;23.21;54.98;100087.80;103706;1277;69208;-66
2023/07/20 10:03:11;;;;;;;1.00;0.80;;;;;;;23.42;54.39;100085.50;103861;1269;69298;-66
2023/07/20 10:05:41;;;;;;;4.10;0.90;;;;;;;23.58;54.06;100089.29;104478;1270;73576;-66
2023/07/20 10:08:11;;;;;;;1.50;1.00;;;;;;;23.61;53.52;100088.29;104790;1267;84901;-68
2023/07/20 10:10:44;;;;;;;1.70;1.00;;;;;;;23.65;53.73;100083.95;104800;1262;73765;-67
2023/07/20 10:13:17;;;;;;;1.00;0.80;;;;;;;23.61;53.50;100089.33;104850;1264;69290;-69
2023/07/20 10:15:47;;;;;;;4.20;1.10;;;;;;;23.47;53.41;100102.88;104887;1265;69385;-69
2023/07/20 10:18:21;;;;;;;3.70;0.90;;;;;;;23.17;53.09;100103.54;104909;1263;74949;-68
2023/07/20 10:20:49;;;;;;;3.00;0.80;;;;;;;22.82;53.45;100101.42;104981;1265;83097;-68
2023/07/20 10:23:19;;;;;;;1.60;0.80;;;;;;;22.68;53.84;100102.73;104863;1264;73970;-68
2023/07/20 10:25:46;;;;;;;1.70;0.90;;;;;;;22.66;54.50;100103.11;104854;1263;69122;-69
2023/07/20 10:28:14;;;;;;;1.10;0.90;;;;;;;22.74;54.64;100105.07;104927;1265;69030;-68
2023/07/20 10:30:41;;;;;;;3.30;0.90;;;;;;;22.99;54.78;100103.30;105120;1260;73670;-69
2023/07/20 10:33:08;;;;;;;3.20;0.80;;;;;;;23.16;54.31;100107.17;104820;1261;83525;-66
2023/07/20 10:36:05;;;;;;;0.80;0.80;;;;;;;23.21;53.87;100105.69;104964;1260;73907;-68
2023/07/20 10:38:47;;;;;;;1.30;0.80;;;;;;;22.98;52.86;100099.77;105049;1260;69213;-67
2023/07/20 10:41:17;;;;;;;1.30;0.80;;;;;;;22.72;52.95;100099.15;105173;1257;69208;-67
2023/07/20 10:43:48;;;;;;;1.70;0.90;;;;;;;22.64;52.98;100095.61;105498;1253;73880;-67
2023/07/20 10:46:33;;;;;;;1.80;0.80;;;;;;;22.73;52.99;100096.80;105519;1253;83354;-67
2023/07/20 10:49:05;;;;;;;0.60;0.60;;;;;;;23.03;53.04;100097.42;105460;1253;73559;-67
2023/07/20 10:51:56;;;;;;;2.40;0.80;;;;;;;23.08;52.46;100092.96;105504;1254;69201;-67
2023/07/20 10:54:23;;;;;;;4.00;0.90;;;;;;;23.35;52.33;100088.89;105550;1257;69196;-67
2023/07/20 10:56:53;;;;;;;0.60;0.60;;;;;;;23.54;51.86;100081.45;105490;1253;75260;-68
2023/07/20 10:59:41;;;;;;;4.80;0.70;;;;;;;23.93;51.43;100087.71;105466;1257;83324;-67
2023/07/20 11:02:08;;;;;;;1.20;0.60;;;;;;;24.43;51.23;100086.19;105444;1257;72708;-67
2023/07/20 11:04:39;;;;;;;1.30;0.70;;;;;;;24.49;50.77;100085.58;105548;1257;69086;-68
2023/07/20 11:07:06;;;;;;;3.70;0.90;;;;;;;24.45;50.12;100093.81;105537;1254;69209;-68
2023/07/20 11:09:37;;;;;;;1.70;0.70;;;;;;;24.79;50.04;100088.98;105493;1253;75989;-68
2023/07/20 11:12:17;;;;;;;1.50;0.60;;;;;;;25.43;49.72;100093.45;105475;1257;83320;-68
2023/07/20 11:14:56;;;;;;;1.70;0.50;;;;;;;25.63;48.21;100090.84;105498;1254;73938;-68
2023/07/20 11:17:30;;;;;;;1.80;0.70;;;;;;;25.35;47.43;100092.87;105523;1257;69126;-63
2023/07/20 11:20:01;;;;;;;1.80;0.70;;;;;;;24.99;47.19;100087.27;105507;1257;69200;-63
2023/07/20 11:22:31;;;;;;;1.50;0.70;;;;;;;24.87;47.50;100085.67;104948;1264;74616;-65
2023/07/20 11:24:58;;;;;;;1.60;0.80;;;;;;;25.01;47.59;100089.00;104958;1263;83379;-62
2023/07/20 11:27:25;;;;;;;2.10;0.80;;;;;;;25.08;47.49;100090.95;104918;1264;73750;-62
2023/07/20 11:29:52;;;;;;;2.10;0.80;;;;;;;25.01;47.04;100084.74;104988;1264;69760;-63